Time;durP1;ratioP1;P1;durP2;ratioP2;P2;SDS_P1;SDS_P2;PMS_P1;PMS_P2;Temp;Humidity;BMP_temperature;BMP_pressure;BME280_temperature;BME280_humidity;BME280_pressure;Samples;Min_cycle;Max_cycle;Signal;HPM_P1;HPM_P2
2023/04/06 00:02:08;;;;;;;4.33;3.60;;;;;;;;;;5024165;28;20735;-62
2023/04/06 00:04:34;;;;;;;4.30;3.80;;;;;;;;;;5022557;28;20599;-62
2023/04/06 00:06:59;;;;;;;4.60;3.63;;;;;;;;;;5007282;28;20280;-61
2023/04/06 00:09:24;;;;;;;4.78;3.78;;;;;;;;;;5040141;28;20025;-61
2023/04/06 00:11:50;;;;;;;3.93;3.53;;;;;;;;;;5034411;28;20579;-62
2023/04/06 00:14:17;;;;;;;4.10;3.70;;;;;;;;;;5026654;28;20299;-62
2023/04/06 00:16:42;;;;;;;4.03;3.53;;;;;;;;;;5045144;28;20032;-62
2023/04/06 00:19:07;;;;;;;4.60;3.80;;;;;;;;;;5060521;28;20033;-62
2023/04/06 00:21:32;;;;;;;3.63;3.30;;;;;;;;;;5060184;28;20037;-62
2023/04/06 00:23:58;;;;;;;3.67;3.30;;;;;;;;;;5045045;28;20307;-62
2023/04/06 00:26:23;;;;;;;4.20;3.80;;;;;;;;;;5043697;28;20821;-61
2023/04/06 00:28:50;;;;;;;4.03;3.63;;;;;;;;;;5045087;28;20263;-61
2023/04/06 00:31:15;;;;;;;4.43;3.60;;;;;;;;;;5044050;28;20283;-62
2023/04/06 00:33:40;;;;;;;3.95;3.47;;;;;;;;;;5043841;28;20509;-62
2023/04/06 00:36:06;;;;;;;4.40;3.93;;;;;;;;;;5042132;28;20044;-62
2023/04/06 00:38:31;;;;;;;4.30;3.80;;;;;;;;;;5044724;28;20280;-63
2023/04/06 00:40:56;;;;;;;5.13;3.95;;;;;;;;;;5034738;28;20060;-62
2023/04/06 00:43:22;;;;;;;3.90;3.47;;;;;;;;;;5023577;28;20632;-62
2023/04/06 00:45:47;;;;;;;4.40;3.93;;;;;;;;;;5023552;28;20630;-62
2023/04/06 00:48:13;;;;;;;4.13;3.73;;;;;;;;;;5021131;28;20280;-61
2023/04/06 00:50:38;;;;;;;4.07;3.65;;;;;;;;;;5023873;28;20307;-61
2023/04/06 00:53:03;;;;;;;3.90;3.40;;;;;;;;;;5024661;28;20136;-62
2023/04/06 00:55:28;;;;;;;4.77;3.73;;;;;;;;;;5023430;28;20279;-61
2023/04/06 00:57:54;;;;;;;4.10;3.45;;;;;;;;;;5023341;28;20279;-61
2023/04/06 01:00:19;;;;;;;3.55;3.25;;;;;;;;;;5023324;28;20073;-63
2023/04/06 01:02:46;;;;;;;4.45;4.05;;;;;;;;;;5039682;28;20037;-61
2023/04/06 01:05:11;;;;;;;4.28;3.65;;;;;;;;;;5035615;28;20060;-61
2023/04/06 01:07:36;;;;;;;3.95;3.33;;;;;;;;;;5024677;28;20124;-61
2023/04/06 01:10:02;;;;;;;4.25;3.55;;;;;;;;;;5024909;28;20508;-61
2023/04/06 01:12:28;;;;;;;3.78;3.38;;;;;;;;;;5039774;28;20107;-62
2023/04/06 01:14:53;;;;;;;3.53;3.23;;;;;;;;;;5022526;28;20065;-62
2023/04/06 01:17:18;;;;;;;3.58;3.28;;;;;;;;;;5022375;28;20291;-61
2023/04/06 01:19:45;;;;;;;4.03;3.63;;;;;;;;;;5022646;28;20842;-61
2023/04/06 01:22:13;;;;;;;3.85;3.45;;;;;;;;;;5021784;28;20392;-61
2023/04/06 01:24:39;;;;;;;3.63;3.28;;;;;;;;;;5022642;28;20053;-61
2023/04/06 01:27:04;;;;;;;4.00;3.53;;;;;;;;;;5024480;28;20571;-61
2023/04/06 01:29:29;;;;;;;4.15;3.70;;;;;;;;;;5024241;28;20411;-61
2023/04/06 01:31:55;;;;;;;4.45;3.67;;;;;;;;;;5023247;28;20107;-61
2023/04/06 01:34:20;;;;;;;4.15;3.70;;;;;;;;;;5012625;28;20041;-61
2023/04/06 01:36:46;;;;;;;4.18;3.45;;;;;;;;;;5023448;28;20026;-61
2023/04/06 01:39:11;;;;;;;3.73;3.33;;;;;;;;;;5024636;28;20033;-61
2023/04/06 01:41:36;;;;;;;4.10;3.40;;;;;;;;;;5021994;28;20863;-61
2023/04/06 01:44:02;;;;;;;3.85;3.42;;;;;;;;;;5022641;28;20725;-62
2023/04/06 01:46:27;;;;;;;3.83;3.47;;;;;;;;;;5023232;28;20160;-61
2023/04/06 01:48:52;;;;;;;3.40;3.10;;;;;;;;;;5015459;28;20017;-62
2023/04/06 01:51:17;;;;;;;3.80;3.25;;;;;;;;;;5023714;28;20439;-62
2023/04/06 01:53:43;;;;;;;4.30;3.65;;;;;;;;;;5024690;28;20041;-62
2023/04/06 01:56:08;;;;;;;4.35;3.55;;;;;;;;;;5020858;28;20033;-62
2023/04/06 01:58:33;;;;;;;4.03;3.05;;;;;;;;;;5020989;28;20034;-61
2023/04/06 02:00:58;;;;;;;4.15;3.40;;;;;;;;;;5020955;28;20061;-62
2023/04/06 02:03:24;;;;;;;4.37;3.63;;;;;;;;;;5022586;28;20045;-61
2023/04/06 02:05:49;;;;;;;3.90;3.50;;;;;;;;;;5023293;28;20653;-61
2023/04/06 02:08:15;;;;;;;3.40;3.10;;;;;;;;;;5022990;28;20086;-61
2023/04/06 02:10:40;;;;;;;3.58;3.10;;;;;;;;;;5023496;28;20036;-62
2023/04/06 02:13:05;;;;;;;3.97;3.50;;;;;;;;;;5019243;28;20170;-61
2023/04/06 02:15:30;;;;;;;4.30;3.70;;;;;;;;;;5023042;28;20601;-61
2023/04/06 02:17:57;;;;;;;3.47;3.17;;;;;;;;;;5023216;28;20906;-62
2023/04/06 02:20:22;;;;;;;4.05;3.65;;;;;;;;;;5021993;28;20045;-62
2023/04/06 02:22:47;;;;;;;3.57;3.03;;;;;;;;;;5023515;28;20038;-62
2023/04/06 02:25:12;;;;;;;4.07;3.30;;;;;;;;;;5023383;28;20343;-61
2023/04/06 02:27:38;;;;;;;3.40;2.93;;;;;;;;;;5022810;28;20872;-63
2023/04/06 02:30:03;;;;;;;4.10;3.30;;;;;;;;;;5021567;28;20292;-61
2023/04/06 02:32:28;;;;;;;3.47;3.17;;;;;;;;;;5017236;28;20383;-61
2023/04/06 02:34:54;;;;;;;3.90;3.30;;;;;;;;;;5020658;28;20494;-61
2023/04/06 02:37:19;;;;;;;3.38;3.00;;;;;;;;;;5005898;28;20038;-61
2023/04/06 02:39:45;;;;;;;4.07;3.35;;;;;;;;;;5017148;28;20218;-61
2023/04/06 02:42:10;;;;;;;4.28;3.38;;;;;;;;;;5023163;28;20033;-62
2023/04/06 02:44:35;;;;;;;3.80;3.38;;;;;;;;;;5020733;28;20344;-61
2023/04/06 02:47:01;;;;;;;3.45;3.15;;;;;;;;;;5022678;28;20025;-61
2023/04/06 02:49:26;;;;;;;3.40;3.10;;;;;;;;;;5022962;28;20125;-62
2023/04/06 02:51:51;;;;;;;4.00;3.30;;;;;;;;;;5021754;28;20288;-61
2023/04/06 02:54:16;;;;;;;3.65;2.97;;;;;;;;;;5011122;28;20300;-60
2023/04/06 02:56:42;;;;;;;3.43;3.13;;;;;;;;;;5019850;28;20069;-61
2023/04/06 02:59:08;;;;;;;4.00;3.50;;;;;;;;;;5020686;28;20311;-62
2023/04/06 03:01:33;;;;;;;3.53;2.97;;;;;;;;;;5023154;28;20069;-61
2023/04/06 03:03:58;;;;;;;4.13;3.70;;;;;;;;;;5020833;28;20316;-61
2023/04/06 03:06:24;;;;;;;3.40;3.10;;;;;;;;;;5020414;28;20358;-62
2023/04/06 03:08:49;;;;;;;3.72;3.20;;;;;;;;;;5019941;28;20034;-62
2023/04/06 03:11:15;;;;;;;3.60;3.20;;;;;;;;;;5025423;28;20045;-61
2023/04/06 03:13:40;;;;;;;3.40;2.90;;;;;;;;;;5042203;28;20151;-63
2023/04/06 03:16:05;;;;;;;3.90;3.50;;;;;;;;;;5025689;28;20302;-62
2023/04/06 03:18:31;;;;;;;3.63;3.05;;;;;;;;;;5041274;28;20088;-62
2023/04/06 03:20:56;;;;;;;4.15;3.05;;;;;;;;;;5022057;28;20068;-61
2023/04/06 03:23:21;;;;;;;3.20;2.80;;;;;;;;;;5026248;28;20111;-62
2023/04/06 03:25:47;;;;;;;4.05;3.15;;;;;;;;;;5025366;28;20030;-62
2023/04/06 03:28:12;;;;;;;4.30;3.42;;;;;;;;;;5041493;28;20037;-61
2023/04/06 03:30:37;;;;;;;3.63;2.70;;;;;;;;;;5026410;28;20021;-61
2023/04/06 03:33:02;;;;;;;3.30;3.00;;;;;;;;;;5025498;28;21034;-61
2023/04/06 03:35:28;;;;;;;3.22;2.90;;;;;;;;;;5023172;28;20292;-62
2023/04/06 03:37:53;;;;;;;3.53;3.05;;;;;;;;;;5024498;28;20034;-61
2023/04/06 03:40:18;;;;;;;3.30;3.00;;;;;;;;;;5026410;28;20037;-62
2023/04/06 03:42:43;;;;;;;3.13;2.83;;;;;;;;;;5025867;28;20292;-61
2023/04/06 03:45:09;;;;;;;3.80;3.40;;;;;;;;;;5023991;28;20311;-62
2023/04/06 03:47:34;;;;;;;3.35;2.97;;;;;;;;;;5025974;28;20045;-60
2023/04/06 03:50:00;;;;;;;3.42;2.90;;;;;;;;;;5024878;28;20060;-62
2023/04/06 03:52:26;;;;;;;3.30;2.92;;;;;;;;;;5024943;28;20414;-62
2023/04/06 03:54:51;;;;;;;3.67;3.20;;;;;;;;;;5023706;28;20045;-63
2023/04/06 03:57:16;;;;;;;3.40;2.90;;;;;;;;;;5025473;28;20069;-62
2023/04/06 03:59:41;;;;;;;4.17;2.77;;;;;;;;;;5024207;28;20128;-61
2023/04/06 04:02:07;;;;;;;4.15;3.10;;;;;;;;;;5015070;28;20288;-62
2023/04/06 04:04:32;;;;;;;3.50;3.07;;;;;;;;;;5010388;28;20045;-62
2023/04/06 04:06:57;;;;;;;5.22;2.85;;;;;;;;;;5005475;28;20483;-61
2023/04/06 04:09:22;;;;;;;4.63;2.75;;;;;;;;;;5007442;28;20030;-62
2023/04/06 04:11:48;;;;;;;3.33;2.40;;;;;;;;;;5009639;28;20790;-64
2023/04/06 04:14:13;;;;;;;3.53;3.03;;;;;;;;;;5028226;28;20354;-62
2023/04/06 04:16:39;;;;;;;3.00;2.70;;;;;;;;;;5019690;28;20960;-63
2023/04/06 04:19:04;;;;;;;3.50;2.92;;;;;;;;;;5017225;28;20052;-62
2023/04/06 04:21:30;;;;;;;3.28;2.67;;;;;;;;;;5027972;28;20043;-62
2023/04/06 04:23:55;;;;;;;3.13;2.78;;;;;;;;;;5030812;28;20485;-62
2023/04/06 04:26:21;;;;;;;3.40;2.83;;;;;;;;;;5032514;28;20037;-62
2023/04/06 04:28:46;;;;;;;2.70;2.40;;;;;;;;;;5030753;28;20299;-62
2023/04/06 04:31:11;;;;;;;3.58;2.72;;;;;;;;;;5031930;28;20055;-62
2023/04/06 04:33:36;;;;;;;2.77;2.50;;;;;;;;;;5027689;28;20041;-62
2023/04/06 04:36:02;;;;;;;3.08;2.50;;;;;;;;;;5029513;28;20406;-62
2023/04/06 04:38:27;;;;;;;2.95;2.15;;;;;;;;;;5026478;28;20060;-62
2023/04/06 04:40:52;;;;;;;3.58;2.72;;;;;;;;;;5028990;28;20038;-64
2023/04/06 04:43:18;;;;;;;3.03;2.67;;;;;;;;;;5027496;28;20094;-62
2023/04/06 04:45:43;;;;;;;2.92;2.50;;;;;;;;;;5028188;28;20294;-62
2023/04/06 04:48:09;;;;;;;3.72;2.67;;;;;;;;;;5028445;28;20098;-62
2023/04/06 04:50:34;;;;;;;3.70;2.83;;;;;;;;;;5043727;28;22114;-63
2023/04/06 04:52:59;;;;;;;3.13;2.72;;;;;;;;;;5030982;28;20041;-62
2023/04/06 04:55:25;;;;;;;3.13;2.55;;;;;;;;;;5029008;28;20067;-63
2023/04/06 04:57:50;;;;;;;2.87;2.40;;;;;;;;;;5027108;28;20030;-63
2023/04/06 05:00:15;;;;;;;3.57;2.90;;;;;;;;;;5031426;28;21181;-62
2023/04/06 05:02:40;;;;;;;3.08;2.50;;;;;;;;;;5031124;28;20723;-63
2023/04/06 05:05:06;;;;;;;4.00;2.90;;;;;;;;;;5028517;28;20057;-64
2023/04/06 05:07:31;;;;;;;3.45;2.60;;;;;;;;;;5031148;28;20348;-62
2023/04/06 05:09:56;;;;;;;3.28;2.97;;;;;;;;;;5031228;28;20297;-62
2023/04/06 05:12:22;;;;;;;2.88;2.58;;;;;;;;;;5016216;28;20025;-61
2023/04/06 05:14:47;;;;;;;3.43;2.80;;;;;;;;;;5032084;28;20095;-62
2023/04/06 05:17:12;;;;;;;2.88;2.47;;;;;;;;;;5030977;28;20399;-61
2023/04/06 05:19:38;;;;;;;3.10;2.80;;;;;;;;;;5031388;28;20082;-62
2023/04/06 05:22:03;;;;;;;3.23;2.63;;;;;;;;;;5027756;28;20151;-61
2023/04/06 05:24:28;;;;;;;3.07;2.30;;;;;;;;;;5028909;28;20315;-61
2023/04/06 05:26:54;;;;;;;2.90;2.40;;;;;;;;;;5014562;28;20826;-62
2023/04/06 05:29:20;;;;;;;4.07;2.50;;;;;;;;;;5025861;28;20429;-62
2023/04/06 05:31:45;;;;;;;4.30;2.40;;;;;;;;;;5027053;28;20139;-61
2023/04/06 05:34:10;;;;;;;2.60;2.10;;;;;;;;;;5027093;28;20041;-64
2023/04/06 05:36:36;;;;;;;2.78;2.35;;;;;;;;;;5028190;28;21569;-61
2023/04/06 05:39:01;;;;;;;3.00;2.55;;;;;;;;;;5026929;28;20026;-62
2023/04/06 05:41:26;;;;;;;3.30;2.43;;;;;;;;;;5028195;28;20039;-63
2023/04/06 05:43:52;;;;;;;2.83;2.50;;;;;;;;;;5031651;28;20406;-61
2023/04/06 05:46:17;;;;;;;6.50;2.63;;;;;;;;;;5041897;28;20433;-61
2023/04/06 05:48:43;;;;;;;2.83;2.50;;;;;;;;;;5026843;28;20171;-62
2023/04/06 05:51:08;;;;;;;2.85;2.30;;;;;;;;;;5029144;28;20042;-62
2023/04/06 05:53:33;;;;;;;3.00;2.28;;;;;;;;;;5026770;28;20060;-63
2023/04/06 05:56:02;;;;;;;2.57;1.93;;;;;;;;;;5028359;28;20110;-59
2023/04/06 05:58:27;;;;;;;3.10;2.55;;;;;;;;;;5012865;28;20296;-60
2023/04/06 06:01:02;;;;;;;4.22;2.95;;;;;;;;;;5027861;28;20400;-60
2023/04/06 06:03:27;;;;;;;2.80;2.42;;;;;;;;;;5030249;28;20033;-60
2023/04/06 06:05:53;;;;;;;3.63;2.63;;;;;;;;;;5026180;28;20022;-60
2023/04/06 06:08:18;;;;;;;3.00;2.30;;;;;;;;;;5031172;28;20287;-60
2023/04/06 06:10:43;;;;;;;4.00;2.40;;;;;;;;;;5028195;28;20029;-60
2023/04/06 06:13:09;;;;;;;4.10;2.30;;;;;;;;;;5042342;28;20733;-60
2023/04/06 06:15:34;;;;;;;3.30;2.47;;;;;;;;;;5027125;28;20279;-59
2023/04/06 06:18:00;;;;;;;5.18;3.15;;;;;;;;;;5030691;28;20368;-62
2023/04/06 06:20:26;;;;;;;4.03;2.70;;;;;;;;;;5027911;28;20024;-61
2023/04/06 06:22:51;;;;;;;3.00;2.33;;;;;;;;;;5042395;28;20036;-61
2023/04/06 06:25:16;;;;;;;2.85;2.22;;;;;;;;;;5030633;28;20036;-62
2023/04/06 06:27:42;;;;;;;3.55;2.67;;;;;;;;;;5026488;28;20461;-61
2023/04/06 06:30:08;;;;;;;3.40;2.55;;;;;;;;;;5026795;28;20017;-61
2023/04/06 06:32:33;;;;;;;3.60;2.70;;;;;;;;;;5025714;28;20089;-59
2023/04/06 06:34:58;;;;;;;2.90;2.60;;;;;;;;;;5011906;28;20459;-60
2023/04/06 06:37:24;;;;;;;3.40;2.40;;;;;;;;;;5031522;28;20298;-60
2023/04/06 06:39:49;;;;;;;2.38;2.08;;;;;;;;;;5041951;28;20282;-60
2023/04/06 06:42:14;;;;;;;3.70;2.60;;;;;;;;;;5031183;28;20048;-62
2023/04/06 06:44:39;;;;;;;3.15;2.47;;;;;;;;;;5030752;28;20037;-61
2023/04/06 06:47:05;;;;;;;3.33;2.60;;;;;;;;;;5029466;28;20884;-60
2023/04/06 06:49:30;;;;;;;3.07;2.37;;;;;;;;;;5029307;28;20279;-61
2023/04/06 06:51:55;;;;;;;2.67;2.20;;;;;;;;;;5031233;28;20274;-61
2023/04/06 06:54:20;;;;;;;4.40;2.65;;;;;;;;;;5029435;28;21052;-63
2023/04/06 06:56:46;;;;;;;4.27;2.40;;;;;;;;;;5033808;28;21555;-60
2023/04/06 06:59:11;;;;;;;3.55;2.40;;;;;;;;;;5030916;28;20359;-62
2023/04/06 07:01:36;;;;;;;4.80;2.73;;;;;;;;;;5031521;28;20072;-61
2023/04/06 07:04:01;;;;;;;3.47;2.60;;;;;;;;;;5030031;28;20819;-60
2023/04/06 07:06:27;;;;;;;3.80;2.30;;;;;;;;;;5029563;28;20272;-62
2023/04/06 07:08:52;;;;;;;3.80;2.80;;;;;;;;;;5031384;28;20041;-62
2023/04/06 07:11:17;;;;;;;3.80;2.53;;;;;;;;;;5034083;28;20812;-62
2023/04/06 07:13:42;;;;;;;3.43;2.90;;;;;;;;;;5018843;28;20476;-62
2023/04/06 07:16:08;;;;;;;3.65;2.60;;;;;;;;;;5045954;28;20601;-62
2023/04/06 07:18:33;;;;;;;3.13;2.40;;;;;;;;;;5028297;28;20037;-61
2023/04/06 07:20:58;;;;;;;4.18;2.72;;;;;;;;;;5016128;28;20037;-61
2023/04/06 07:23:24;;;;;;;3.73;2.63;;;;;;;;;;5030382;28;20120;-62
2023/04/06 07:25:52;;;;;;;3.78;2.80;;;;;;;;;;5029792;28;20287;-62
2023/04/06 07:28:17;;;;;;;4.00;2.75;;;;;;;;;;5029802;28;20034;-61
2023/04/06 07:30:42;;;;;;;3.50;2.65;;;;;;;;;;5024504;28;20667;-62
2023/04/06 07:33:07;;;;;;;3.67;2.83;;;;;;;;;;5009800;28;20041;-62
2023/04/06 07:35:33;;;;;;;4.07;3.03;;;;;;;;;;5008518;28;20311;-61
2023/04/06 07:37:59;;;;;;;3.83;2.80;;;;;;;;;;5009876;28;20080;-61
2023/04/06 07:40:26;;;;;;;3.70;2.80;;;;;;;;;;5009925;28;20076;-61
2023/04/06 07:42:51;;;;;;;3.88;2.58;;;;;;;;;;5009145;28;20053;-60
2023/04/06 07:45:16;;;;;;;3.47;2.40;;;;;;;;;;5009811;28;20638;-61
2023/04/06 07:47:41;;;;;;;3.27;2.70;;;;;;;;;;5012958;28;20312;-63
2023/04/06 07:50:07;;;;;;;3.90;2.83;;;;;;;;;;5009209;28;21227;-61
2023/04/06 07:52:32;;;;;;;3.15;2.67;;;;;;;;;;5014084;28;20041;-61
2023/04/06 07:54:58;;;;;;;3.97;2.90;;;;;;;;;;4990401;28;20566;-60
2023/04/06 07:57:23;;;;;;;4.60;3.17;;;;;;;;;;5007991;28;20579;-62
2023/04/06 07:59:48;;;;;;;3.80;2.80;;;;;;;;;;5008316;28;20069;-61
2023/04/06 08:02:14;;;;;;;4.27;3.07;;;;;;;;;;5017689;28;20670;-61
2023/04/06 08:04:39;;;;;;;3.75;3.05;;;;;;;;;;5022425;28;20296;-66
2023/04/06 08:07:05;;;;;;;3.45;2.60;;;;;;;;;;5027505;28;20064;-62
2023/04/06 08:09:30;;;;;;;3.42;2.75;;;;;;;;;;5034609;28;20641;-61
2023/04/06 08:11:55;;;;;;;4.40;2.85;;;;;;;;;;5023846;28;20041;-62
2023/04/06 08:14:20;;;;;;;3.63;2.50;;;;;;;;;;5005833;28;20108;-64
2023/04/06 08:16:46;;;;;;;3.65;3.22;;;;;;;;;;5022735;28;20758;-62
2023/04/06 08:19:11;;;;;;;3.90;2.75;;;;;;;;;;5022246;28;20045;-61
2023/04/06 08:21:36;;;;;;;3.53;2.70;;;;;;;;;;5022488;28;20091;-61
2023/04/06 08:24:01;;;;;;;3.77;2.87;;;;;;;;;;5019563;28;20387;-62
2023/04/06 08:26:27;;;;;;;3.30;2.50;;;;;;;;;;5025044;28;20800;-61
2023/04/06 08:28:53;;;;;;;3.75;2.88;;;;;;;;;;5024717;28;20421;-62
2023/04/06 08:31:18;;;;;;;3.90;2.97;;;;;;;;;;5024874;28;20068;-61
2023/04/06 08:33:43;;;;;;;4.47;3.00;;;;;;;;;;5014883;28;20041;-63
2023/04/06 08:36:09;;;;;;;4.00;3.00;;;;;;;;;;5022805;28;20288;-62
2023/04/06 08:38:35;;;;;;;3.42;2.60;;;;;;;;;;5023917;28;20656;-62
2023/04/06 08:41:00;;;;;;;4.03;3.00;;;;;;;;;;5024549;28;20120;-62
2023/04/06 08:43:26;;;;;;;4.10;2.92;;;;;;;;;;5023290;28;20030;-60
2023/04/06 08:45:51;;;;;;;4.20;3.10;;;;;;;;;;5023849;28;20426;-62
2023/04/06 08:48:16;;;;;;;4.17;3.13;;;;;;;;;;5023262;28;20469;-62
2023/04/06 08:50:41;;;;;;;3.58;2.53;;;;;;;;;;5029512;28;20340;-62
2023/04/06 08:53:07;;;;;;;3.65;2.92;;;;;;;;;;5026641;28;20025;-61
2023/04/06 08:55:33;;;;;;;3.40;2.88;;;;;;;;;;5041847;28;20045;-61
2023/04/06 08:57:58;;;;;;;4.43;2.70;;;;;;;;;;5026239;28;20025;-63
2023/04/06 09:00:24;;;;;;;3.50;2.70;;;;;;;;;;5043107;28;20397;-62
2023/04/06 09:02:49;;;;;;;4.32;3.05;;;;;;;;;;5040803;28;20433;-61
2023/04/06 09:05:15;;;;;;;4.50;3.08;;;;;;;;;;5023551;28;20053;-61
2023/04/06 09:07:40;;;;;;;3.67;3.17;;;;;;;;;;5023344;28;20025;-62
2023/04/06 09:10:05;;;;;;;4.18;2.90;;;;;;;;;;5022496;28;20303;-64
2023/04/06 09:12:31;;;;;;;3.25;2.63;;;;;;;;;;5023214;28;20029;-61
2023/04/06 09:14:56;;;;;;;3.25;2.83;;;;;;;;;;5023897;28;20460;-61
2023/04/06 09:17:22;;;;;;;4.15;2.75;;;;;;;;;;5021101;28;20473;-61
2023/04/06 09:19:47;;;;;;;3.53;2.72;;;;;;;;;;5019551;28;20124;-62
2023/04/06 09:22:13;;;;;;;3.38;2.78;;;;;;;;;;5023662;28;20506;-61
2023/04/06 09:24:42;;;;;;;3.10;2.63;;;;;;;;;;5003396;28;20111;-62
2023/04/06 09:27:08;;;;;;;3.03;2.70;;;;;;;;;;4998030;28;20041;-61
2023/04/06 09:29:33;;;;;;;3.30;3.00;;;;;;;;;;5011825;28;20091;-61
2023/04/06 09:32:05;;;;;;;4.03;3.20;;;;;;;;;;5009658;28;20296;-61
2023/04/06 09:34:30;;;;;;;4.15;3.00;;;;;;;;;;5007181;28;20564;-63
2023/04/06 09:36:56;;;;;;;3.63;2.88;;;;;;;;;;4995400;28;20045;-63
2023/04/06 09:39:25;;;;;;;4.25;3.10;;;;;;;;;;5009865;28;20067;-62
2023/04/06 09:41:50;;;;;;;3.83;3.00;;;;;;;;;;5011084;28;20141;-62
2023/04/06 09:44:16;;;;;;;3.05;2.70;;;;;;;;;;5011000;28;20045;-62
2023/04/06 09:46:41;;;;;;;2.97;2.53;;;;;;;;;;5010542;28;20549;-62
2023/04/06 09:49:07;;;;;;;3.17;2.53;;;;;;;;;;5010212;28;20381;-63
2023/04/06 09:51:53;;;;;;;3.30;2.92;;;;;;;;;;5008549;28;20080;-61
2023/04/06 09:54:18;;;;;;;3.35;3.03;;;;;;;;;;5006015;28;20038;-63
2023/04/06 09:56:45;;;;;;;4.45;2.97;;;;;;;;;;5007673;28;20463;-62
2023/04/06 09:59:18;;;;;;;4.00;2.85;;;;;;;;;;5009834;28;20124;-61
2023/04/06 10:01:43;;;;;;;3.50;3.15;;;;;;;;;;4992453;28;20045;-62
2023/04/06 10:04:08;;;;;;;4.57;3.13;;;;;;;;;;5010441;28;20045;-61
2023/04/06 10:06:35;;;;;;;3.33;2.63;;;;;;;;;;5009040;28;20305;-62
2023/04/06 10:09:00;;;;;;;4.15;3.00;;;;;;;;;;4995340;28;20323;-61
2023/04/06 10:11:25;;;;;;;3.50;2.90;;;;;;;;;;5011430;28;20482;-60
2023/04/06 10:13:51;;;;;;;3.60;2.80;;;;;;;;;;5008790;28;20500;-60
2023/04/06 10:16:16;;;;;;;4.28;3.00;;;;;;;;;;5011143;28;20029;-61
2023/04/06 10:18:43;;;;;;;5.00;3.25;;;;;;;;;;5006839;28;20503;-60
2023/04/06 10:21:10;;;;;;;3.85;2.90;;;;;;;;;;5026939;28;20049;-60
2023/04/06 10:23:36;;;;;;;4.38;3.10;;;;;;;;;;5025320;28;20048;-60
2023/04/06 10:26:01;;;;;;;4.13;3.10;;;;;;;;;;5020229;28;20033;-64
2023/04/06 10:28:35;;;;;;;4.38;3.00;;;;;;;;;;5024650;28;20045;-60
2023/04/06 10:31:01;;;;;;;4.85;3.65;;;;;;;;;;5030069;28;20041;-60
2023/04/06 10:33:27;;;;;;;3.90;2.95;;;;;;;;;;5027597;28;20068;-61
2023/04/06 10:35:52;;;;;;;3.47;2.63;;;;;;;;;;5029793;28;20033;-62
2023/04/06 10:38:20;;;;;;;3.60;2.95;;;;;;;;;;5029524;28;20074;-60
2023/04/06 10:40:47;;;;;;;3.65;2.70;;;;;;;;;;5013966;28;20665;-61
2023/04/06 10:43:13;;;;;;;4.50;3.03;;;;;;;;;;5027739;28;20048;-61
2023/04/06 10:45:39;;;;;;;3.78;3.05;;;;;;;;;;5027392;28;20049;-61
2023/04/06 10:48:14;;;;;;;3.78;2.83;;;;;;;;;;5029467;28;20576;-62
2023/04/06 10:50:40;;;;;;;3.38;2.85;;;;;;;;;;5029314;28;20049;-61
2023/04/06 10:53:06;;;;;;;4.07;3.00;;;;;;;;;;5028099;28;20472;-60
2023/04/06 10:55:31;;;;;;;4.03;3.15;;;;;;;;;;5030116;28;20193;-62
2023/04/06 10:57:56;;;;;;;4.30;3.10;;;;;;;;;;5044910;28;20146;-65
2023/04/06 11:00:22;;;;;;;4.30;3.00;;;;;;;;;;5027219;28;20037;-62
2023/04/06 11:02:48;;;;;;;3.83;2.90;;;;;;;;;;5029636;28;20728;-62
2023/04/06 11:05:13;;;;;;;3.38;2.90;;;;;;;;;;5031404;28;20125;-62
2023/04/06 11:07:39;;;;;;;3.55;2.83;;;;;;;;;;5031318;28;20139;-63
2023/04/06 11:10:04;;;;;;;3.63;2.90;;;;;;;;;;5027085;28;20041;-64
2023/04/06 11:12:30;;;;;;;3.92;3.13;;;;;;;;;;5027509;28;20063;-62
2023/04/06 11:15:00;;;;;;;4.45;3.20;;;;;;;;;;5031570;28;20037;-62
2023/04/06 11:17:26;;;;;;;3.38;2.78;;;;;;;;;;5042190;28;20140;-63
2023/04/06 11:19:52;;;;;;;3.45;2.90;;;;;;;;;;5026699;28;20105;-62
2023/04/06 11:22:17;;;;;;;4.10;3.10;;;;;;;;;;5019808;28;20045;-62
2023/04/06 11:24:42;;;;;;;3.63;3.10;;;;;;;;;;5013473;28;20378;-62
2023/04/06 11:27:07;;;;;;;3.50;2.63;;;;;;;;;;5002698;28;20417;-65
2023/04/06 11:29:35;;;;;;;3.35;2.97;;;;;;;;;;5041160;28;20664;-61
2023/04/06 11:32:01;;;;;;;3.20;2.67;;;;;;;;;;5029384;28;20021;-62
2023/04/06 11:34:28;;;;;;;3.47;2.70;;;;;;;;;;5034518;28;20025;-62
2023/04/06 11:36:59;;;;;;;3.90;2.80;;;;;;;;;;5033995;28;20012;-61
2023/04/06 11:39:25;;;;;;;3.60;2.95;;;;;;;;;;5015927;28;20311;-62
2023/04/06 11:41:51;;;;;;;4.00;3.10;;;;;;;;;;5033252;28;20761;-63
2023/04/06 11:44:26;;;;;;;4.45;3.33;;;;;;;;;;5030203;28;20572;-62
2023/04/06 11:46:52;;;;;;;3.55;2.90;;;;;;;;;;5030950;28;20048;-61
2023/04/06 11:49:18;;;;;;;3.40;3.10;;;;;;;;;;5030245;28;20076;-62
2023/04/06 11:51:43;;;;;;;3.83;3.00;;;;;;;;;;5030585;28;20505;-63
2023/04/06 11:54:08;;;;;;;3.28;2.85;;;;;;;;;;5030620;28;20304;-62
2023/04/06 11:56:34;;;;;;;3.47;3.10;;;;;;;;;;5031276;28;20319;-64
2023/04/06 11:58:59;;;;;;;4.15;3.30;;;;;;;;;;5027032;28;20295;-61
2023/04/06 12:01:25;;;;;;;3.50;3.10;;;;;;;;;;5033095;28;20063;-64
2023/04/06 12:03:50;;;;;;;3.00;2.70;;;;;;;;;;5030236;28;20155;-63
2023/04/06 12:06:16;;;;;;;3.53;3.00;;;;;;;;;;5032940;28;20785;-64
2023/04/06 12:08:41;;;;;;;3.75;2.85;;;;;;;;;;5033573;28;20034;-64
2023/04/06 12:11:06;;;;;;;3.33;3.03;;;;;;;;;;5029681;28;20128;-64
2023/04/06 12:13:31;;;;;;;3.67;3.00;;;;;;;;;;5031111;28;20291;-64
2023/04/06 12:15:57;;;;;;;3.60;3.03;;;;;;;;;;5030057;28;20052;-63
2023/04/06 12:18:22;;;;;;;3.13;2.80;;;;;;;;;;5044541;28;20298;-62
2023/04/06 12:20:47;;;;;;;3.67;3.20;;;;;;;;;;5033051;28;20373;-63
2023/04/06 12:23:12;;;;;;;4.10;3.13;;;;;;;;;;5032822;28;20339;-61
2023/04/06 12:25:39;;;;;;;3.77;3.17;;;;;;;;;;5043641;28;20290;-63
2023/04/06 12:28:05;;;;;;;3.25;2.95;;;;;;;;;;5044670;28;20612;-62
2023/04/06 12:30:31;;;;;;;4.03;3.08;;;;;;;;;;5042454;28;20037;-61
2023/04/06 12:32:56;;;;;;;3.38;2.78;;;;;;;;;;5058308;28;20053;-60
2023/04/06 12:35:21;;;;;;;3.53;2.97;;;;;;;;;;5044682;28;20036;-65
2023/04/06 12:37:46;;;;;;;3.20;2.63;;;;;;;;;;5025732;28;20341;-62
2023/04/06 12:40:12;;;;;;;3.43;2.73;;;;;;;;;;5022282;28;20042;-61
2023/04/06 12:42:38;;;;;;;3.60;2.85;;;;;;;;;;5024567;28;20374;-61
2023/04/06 12:45:03;;;;;;;2.90;2.60;;;;;;;;;;5023572;28;20042;-63
2023/04/06 12:47:29;;;;;;;3.20;2.72;;;;;;;;;;5023607;28;20123;-65
2023/04/06 12:49:54;;;;;;;3.50;3.00;;;;;;;;;;5024460;28;20464;-61
2023/04/06 12:52:20;;;;;;;3.40;2.85;;;;;;;;;;5022654;28;20368;-62
2023/04/06 12:54:45;;;;;;;3.85;2.95;;;;;;;;;;5012314;28;20034;-65
2023/04/06 12:57:10;;;;;;;3.33;2.90;;;;;;;;;;5021516;28;20084;-62
2023/04/06 12:59:36;;;;;;;3.40;2.87;;;;;;;;;;5022554;28;20267;-64
2023/04/06 13:02:03;;;;;;;3.60;2.90;;;;;;;;;;5018347;28;20317;-61
2023/04/06 13:04:28;;;;;;;3.05;2.50;;;;;;;;;;4998186;28;20111;-61
2023/04/06 13:06:53;;;;;;;3.27;2.80;;;;;;;;;;5023326;28;20076;-62
2023/04/06 13:09:18;;;;;;;4.30;3.13;;;;;;;;;;5023523;28;20279;-63
2023/04/06 13:11:44;;;;;;;2.97;2.60;;;;;;;;;;5022184;28;20120;-62
2023/04/06 13:14:09;;;;;;;3.10;2.80;;;;;;;;;;5022263;28;20908;-63
2023/04/06 13:16:36;;;;;;;2.93;2.63;;;;;;;;;;5022496;28;20053;-63
2023/04/06 13:19:01;;;;;;;4.15;3.10;;;;;;;;;;5022061;28;20367;-61
2023/04/06 13:21:26;;;;;;;3.53;2.93;;;;;;;;;;5023026;28;20168;-61
2023/04/06 13:23:52;;;;;;;3.20;2.80;;;;;;;;;;5019740;28;20303;-61
2023/04/06 13:26:17;;;;;;;3.40;2.90;;;;;;;;;;5008626;28;20037;-61
2023/04/06 13:28:42;;;;;;;4.07;2.97;;;;;;;;;;5042388;28;20044;-62
2023/04/06 13:31:09;;;;;;;3.70;3.13;;;;;;;;;;5042026;28;20036;-62
2023/04/06 13:33:34;;;;;;;3.58;3.13;;;;;;;;;;5042413;28;20052;-62
2023/04/06 13:36:00;;;;;;;3.75;3.08;;;;;;;;;;5041768;28;20481;-62
2023/04/06 13:38:25;;;;;;;3.22;2.80;;;;;;;;;;5025305;28;20425;-62
2023/04/06 13:40:50;;;;;;;3.15;2.85;;;;;;;;;;5042155;28;20025;-65
2023/04/06 13:43:18;;;;;;;3.15;2.78;;;;;;;;;;5042208;28;20080;-62
2023/04/06 13:45:43;;;;;;;3.00;2.70;;;;;;;;;;5034150;28;20041;-60
2023/04/06 13:48:08;;;;;;;4.20;3.40;;;;;;;;;;5003533;28;20051;-62
2023/04/06 13:50:34;;;;;;;3.00;2.70;;;;;;;;;;5021054;28;21034;-62
2023/04/06 13:53:00;;;;;;;3.00;2.70;;;;;;;;;;5021318;28;20303;-62
2023/04/06 13:55:25;;;;;;;3.35;2.83;;;;;;;;;;5020257;28;20037;-60
2023/04/06 13:57:51;;;;;;;21.38;4.13;;;;;;;;;;5017505;28;20064;-62
2023/04/06 14:00:16;;;;;;;9.43;2.87;;;;;;;;;;5022302;28;20095;-60
2023/04/06 14:02:41;;;;;;;3.47;2.85;;;;;;;;;;5019903;28;20107;-62
2023/04/06 14:05:07;;;;;;;5.13;2.73;;;;;;;;;;5020286;28;20053;-61
2023/04/06 14:07:32;;;;;;;5.93;2.97;;;;;;;;;;5022981;28;20288;-61
2023/04/06 14:09:57;;;;;;;5.95;2.78;;;;;;;;;;5021049;28;20064;-62
2023/04/06 14:12:22;;;;;;;4.43;2.63;;;;;;;;;;5008691;28;20022;-63
2023/04/06 14:14:48;;;;;;;5.33;3.23;;;;;;;;;;5008082;28;20033;-64
2023/04/06 14:17:13;;;;;;;4.97;2.95;;;;;;;;;;5011096;28;20953;-62
2023/04/06 14:19:38;;;;;;;3.93;2.80;;;;;;;;;;5005683;28;20049;-63
2023/04/06 14:22:04;;;;;;;4.97;2.83;;;;;;;;;;5009106;28;20736;-63
2023/04/06 14:24:29;;;;;;;4.28;3.00;;;;;;;;;;5007889;28;20314;-60
2023/04/06 14:26:56;;;;;;;3.72;3.10;;;;;;;;;;4993627;28;20479;-60
2023/04/06 14:29:21;;;;;;;3.05;2.70;;;;;;;;;;5017894;28;20060;-61
2023/04/06 14:31:47;;;;;;;6.80;3.20;;;;;;;;;;5023878;28;20057;-62
2023/04/06 14:34:12;;;;;;;5.28;2.95;;;;;;;;;;5023192;28;20088;-61